createdAt,value
2017-07-25T00:04:56.275Z,28.20
2017-07-25T00:07:29.279Z,29.13
2017-07-25T00:17:42.615Z,27.65
2017-07-25T00:22:43.198Z,29.32
2017-07-25T00:25:15.471Z,30.98
2017-07-25T00:27:43.791Z,31.93
2017-07-25T00:32:52.469Z,29.75
2017-07-25T00:38:02.905Z,29.85
2017-07-25T00:43:03.990Z,27.48
2017-07-25T00:45:32.118Z,30.78
2017-07-25T00:48:00.945Z,30.98
2017-07-25T00:50:33.430Z,29.10
2017-07-25T00:58:26.741Z,30.83
2017-07-25T01:03:26.230Z,28.40
2017-07-25T01:05:55.004Z,27.22
2017-07-25T01:08:27.214Z,28.80
2017-07-25T01:10:58.523Z,24.45
2017-07-25T01:13:27.149Z,26.73
2017-07-25T01:15:56.922Z,24.48
2017-07-25T01:18:25.782Z,26.80
2017-07-25T01:20:53.324Z,25.72
2017-07-25T01:25:56.757Z,26.50
2017-07-25T01:33:36.834Z,26.88
2017-07-25T01:36:12.033Z,26.43
2017-07-25T01:38:58.331Z,25.40
2017-07-25T01:41:29.617Z,26.63
2017-07-25T01:43:57.148Z,24.03
2017-07-25T01:49:01.123Z,24.63
2017-07-25T01:51:29.794Z,25.22
2017-07-25T01:53:57.783Z,24.88
2017-07-25T01:56:29.158Z,24.57
2017-07-25T01:58:56.465Z,24.78
2017-07-25T02:04:30.774Z,26.37
2017-07-25T02:07:02.689Z,23.42
2017-07-25T02:09:29.958Z,24.72
2017-07-25T02:14:31.927Z,26.82
2017-07-25T02:16:59.244Z,24.50
2017-07-25T02:29:52.987Z,27.45
2017-07-25T02:32:34.136Z,26.35
2017-07-25T02:35:03.520Z,26.05
2017-07-25T02:37:42.602Z,27.55
2017-07-25T02:40:11.106Z,25.82
2017-07-25T02:42:42.206Z,28.25
2017-07-25T02:45:12.799Z,31.28
2017-07-25T02:47:46.489Z,28.90
2017-07-25T02:50:15.422Z,27.50
2017-07-25T02:52:48.098Z,28.63
2017-07-25T03:00:27.224Z,27.08
2017-07-25T03:02:54.138Z,28.22
2017-07-25T03:05:27.391Z,27.38
2017-07-25T03:07:55.482Z,25.60
2017-07-25T03:10:23.027Z,26.17
2017-07-25T03:12:56.828Z,27.12
2017-07-25T03:15:25.640Z,28.00
2017-07-25T03:17:54.029Z,27.42
2017-07-25T03:20:21.925Z,24.08
2017-07-25T03:25:25.882Z,23.98
2017-07-25T03:27:53.123Z,23.48
2017-07-25T03:33:04.750Z,21.87
2017-07-25T03:35:33.110Z,22.52
2017-07-25T03:38:04.278Z,25.08
2017-07-25T03:40:36.527Z,22.30
2017-07-25T03:43:06.376Z,23.43
2017-07-25T03:45:39.236Z,23.48
2017-07-25T03:48:08.257Z,25.83
2017-07-25T03:50:36.507Z,25.48
2017-07-25T03:55:37.336Z,24.58
2017-07-25T03:58:15.211Z,24.65
2017-07-25T04:00:43.837Z,23.08
2017-07-25T04:03:11.304Z,24.12
2017-07-25T04:05:43.529Z,25.40
2017-07-25T04:08:12.077Z,23.33
2017-07-25T04:10:41.824Z,20.25
2017-07-25T04:13:08.901Z,23.80
2017-07-25T04:15:42.220Z,25.68
2017-07-25T04:18:09.385Z,26.03
2017-07-25T04:20:37.317Z,23.82
2017-07-25T04:23:05.906Z,23.65
2017-07-25T04:25:41.370Z,25.02
2017-07-25T04:28:09.495Z,24.60
2017-07-25T04:30:38.410Z,25.53
2017-07-25T04:33:15.061Z,23.40
2017-07-25T04:35:44.285Z,22.13
2017-07-25T04:38:18.307Z,23.90
2017-07-25T04:40:47.205Z,26.00
2017-07-25T04:43:29.256Z,23.68
2017-07-25T04:45:58.260Z,24.80
2017-07-25T04:48:26.511Z,24.13
2017-07-25T04:50:55.233Z,24.23
2017-07-25T04:53:25.174Z,22.80
2017-07-25T04:56:02.501Z,22.58
2017-07-25T04:58:31.124Z,22.78
2017-07-25T05:01:05.574Z,23.70
2017-07-25T05:03:35.100Z,22.02
2017-07-25T05:06:02.225Z,21.83
2017-07-25T05:13:40.113Z,24.75
2017-07-25T05:16:13.268Z,22.48
2017-07-25T05:19:01.987Z,24.70
2017-07-25T05:21:29.153Z,22.82
2017-07-25T05:23:56.373Z,22.97
2017-07-25T05:29:02.549Z,22.18
2017-07-25T05:31:30.195Z,22.03
2017-07-25T05:33:57.727Z,21.80
2017-07-25T05:36:25.131Z,22.33
2017-07-25T05:38:51.931Z,20.67
2017-07-25T05:41:18.915Z,21.22
2017-07-25T05:43:50.284Z,21.05
2017-07-25T05:46:18.013Z,20.10
2017-07-25T05:48:45.203Z,22.53
2017-07-25T05:51:12.880Z,21.23
2017-07-25T05:53:39.704Z,20.67
2017-07-25T05:56:06.781Z,19.58
2017-07-25T05:58:34.118Z,20.40
2017-07-25T06:01:00.941Z,19.13
2017-07-25T06:03:27.739Z,19.93
2017-07-25T06:05:54.564Z,18.15
2017-07-25T06:08:21.708Z,18.82
2017-07-25T06:10:48.849Z,19.43
2017-07-25T06:13:16.025Z,19.97
2017-07-25T06:15:43.011Z,20.25
2017-07-25T06:18:10.096Z,19.20
2017-07-25T06:20:37.315Z,20.18
2017-07-25T06:23:04.617Z,21.67
2017-07-25T06:25:31.423Z,19.37
2017-07-25T06:27:58.567Z,21.20
2017-07-25T06:30:31.560Z,19.88
2017-07-25T06:33:00.564Z,19.77
2017-07-25T06:35:27.565Z,21.12
2017-07-25T06:37:56.235Z,20.95
2017-07-25T06:40:23.446Z,21.20
2017-07-25T06:42:56.678Z,20.23
2017-07-25T06:45:24.650Z,22.52
2017-07-25T06:47:51.415Z,22.10
2017-07-25T06:50:21.380Z,19.92
2017-07-25T06:52:55.581Z,20.02
2017-07-25T06:55:23.347Z,17.80
2017-07-25T06:57:50.126Z,16.08
2017-07-25T07:00:17.418Z,17.25
2017-07-25T07:02:44.260Z,18.57
2017-07-25T07:05:11.069Z,18.37
2017-07-25T07:08:00.319Z,16.55
2017-07-25T07:10:27.804Z,17.18
2017-07-25T07:12:54.643Z,16.00
2017-07-25T07:15:21.727Z,18.05
2017-07-25T07:17:49.447Z,18.22
2017-07-25T07:20:16.647Z,16.40
2017-07-25T07:22:43.419Z,16.07
2017-07-25T07:25:11.830Z,15.67
2017-07-25T07:27:38.998Z,16.88
2017-07-25T07:30:11.245Z,16.50
2017-07-25T07:32:38.879Z,16.25
2017-07-25T07:35:05.649Z,16.03
2017-07-25T07:37:40.745Z,17.42
2017-07-25T07:40:08.177Z,16.68
2017-07-25T07:42:44.269Z,15.50
2017-07-25T07:45:17.822Z,14.57
2017-07-25T07:47:44.657Z,13.98
2017-07-25T07:50:12.065Z,12.03
2017-07-25T07:52:39.057Z,12.67
2017-07-25T07:55:07.180Z,11.35
2017-07-25T07:57:37.109Z,9.30
2017-07-25T08:00:04.780Z,9.02
2017-07-25T08:02:31.787Z,8.83
2017-07-25T08:04:58.550Z,10.07
2017-07-25T08:07:26.355Z,8.38
2017-07-25T08:09:53.379Z,7.85
2017-07-25T08:12:21.658Z,7.78
2017-07-25T08:14:49.333Z,6.98
2017-07-25T08:17:16.133Z,7.88
2017-07-25T08:19:43.855Z,6.55
2017-07-25T08:22:10.606Z,6.02
2017-07-25T08:24:37.723Z,8.08
2017-07-25T08:27:04.504Z,6.72
2017-07-25T08:29:31.930Z,6.82
2017-07-25T08:31:58.700Z,5.92
2017-07-25T08:34:37.523Z,6.42
2017-07-25T08:37:05.557Z,6.92
2017-07-25T08:39:32.710Z,6.30
2017-07-25T08:41:59.852Z,6.28
2017-07-25T08:44:26.968Z,7.40
2017-07-25T08:46:54.483Z,6.28
2017-07-25T08:49:21.690Z,5.70
2017-07-25T08:51:48.775Z,6.85
2017-07-25T09:05:04.647Z,9.28
2017-07-25T09:07:33.614Z,8.73
2017-07-25T09:10:10.362Z,8.50
2017-07-25T09:15:12.037Z,9.73
2017-07-25T09:20:27.792Z,10.58
2017-07-25T09:25:49.733Z,12.75
2017-07-25T09:28:18.388Z,13.12
2017-07-25T09:30:49.976Z,13.70
2017-07-25T09:33:21.068Z,14.82
2017-07-25T09:35:49.066Z,16.05
2017-07-25T09:38:17.274Z,16.67
2017-07-25T09:40:44.789Z,16.48
2017-07-25T09:43:13.777Z,18.25
2017-07-25T09:45:44.873Z,18.48
2017-07-25T09:48:20.548Z,18.60
2017-07-25T09:53:21.534Z,17.30
2017-07-25T09:55:51.095Z,20.25
2017-07-25T09:58:19.170Z,17.07
2017-07-25T10:00:46.410Z,18.63
2017-07-25T10:03:14.460Z,18.50
2017-07-25T10:05:49.971Z,19.45
2017-07-25T10:08:18.926Z,18.57
2017-07-25T10:10:51.311Z,18.18
2017-07-25T10:13:27.126Z,18.08
2017-07-25T10:15:54.866Z,19.83
2017-07-25T10:18:23.007Z,20.15
2017-07-25T10:20:58.847Z,19.55
2017-07-25T10:23:25.938Z,19.48
2017-07-25T10:25:53.657Z,19.87
2017-07-25T10:28:21.917Z,23.60
2017-07-25T10:30:52.084Z,21.80
2017-07-25T10:33:23.818Z,21.65
2017-07-25T10:35:52.254Z,20.92
2017-07-25T10:38:20.522Z,20.93
2017-07-25T10:40:47.823Z,20.62
2017-07-25T10:43:15.030Z,20.50
2017-07-25T10:45:42.299Z,16.50
2017-07-25T10:48:10.642Z,18.40
2017-07-25T10:50:37.892Z,17.10
2017-07-25T10:55:35.922Z,18.03
2017-07-25T10:58:02.988Z,18.87
2017-07-25T11:00:29.836Z,17.68
2017-07-25T11:02:56.957Z,18.08
2017-07-25T11:05:24.288Z,18.63
2017-07-25T11:07:51.527Z,22.45
2017-07-25T11:10:19.233Z,21.77
2017-07-25T11:12:46.975Z,19.33
2017-07-25T11:15:17.141Z,16.68
2017-07-25T11:17:44.358Z,13.18
2017-07-25T11:20:11.249Z,13.60
2017-07-25T11:22:38.364Z,11.45
2017-07-25T11:25:06.456Z,11.32
2017-07-25T11:27:35.018Z,12.05
2017-07-25T11:30:03.101Z,12.02
2017-07-25T11:32:31.176Z,10.78
2017-07-25T11:34:58.746Z,12.15
2017-07-25T11:37:26.312Z,10.83
2017-07-25T11:39:54.868Z,11.95
2017-07-25T11:42:22.494Z,11.63
2017-07-25T11:44:49.544Z,10.20
2017-07-25T11:47:16.723Z,9.83
2017-07-25T11:49:43.882Z,10.90
2017-07-25T11:52:10.659Z,10.27
2017-07-25T11:54:38.097Z,10.78
2017-07-25T11:57:05.297Z,11.42
2017-07-25T11:59:32.743Z,9.52
2017-07-25T12:01:59.532Z,10.22
2017-07-25T12:04:26.425Z,12.37
2017-07-25T12:06:53.599Z,12.00
2017-07-25T12:09:21.039Z,13.37
2017-07-25T12:11:48.215Z,11.37
2017-07-25T12:14:15.015Z,13.60
2017-07-25T12:16:42.266Z,12.05
2017-07-25T12:19:16.126Z,11.33
2017-07-25T12:21:44.529Z,11.30
2017-07-25T12:24:16.926Z,11.35
2017-07-25T12:26:44.402Z,11.38
2017-07-25T12:29:11.757Z,9.08
2017-07-25T12:31:39.312Z,11.20
2017-07-25T12:34:06.476Z,11.32
2017-07-25T12:36:34.313Z,11.32
2017-07-25T12:39:04.706Z,12.05
2017-07-25T12:41:31.517Z,13.13
2017-07-25T12:43:58.651Z,12.70
2017-07-25T12:46:25.835Z,13.68
2017-07-25T12:48:53.030Z,13.97
2017-07-25T12:51:19.807Z,12.93
2017-07-25T12:53:47.385Z,14.00
2017-07-25T12:56:15.067Z,14.13
2017-07-25T12:58:41.902Z,13.07
2017-07-25T13:01:27.639Z,12.63
2017-07-25T13:03:54.776Z,14.05
2017-07-25T13:06:21.943Z,12.93
2017-07-25T13:08:49.696Z,13.97
2017-07-25T13:11:17.069Z,13.32
2017-07-25T13:13:45.801Z,14.35
2017-07-25T13:16:13.263Z,13.33
2017-07-25T13:18:43.544Z,15.13
2017-07-25T13:21:11.099Z,14.63
2017-07-25T13:23:38.402Z,14.83
2017-07-25T13:26:06.037Z,15.00
2017-07-25T13:28:36.585Z,15.62
2017-07-25T13:31:03.528Z,16.83
2017-07-25T13:33:30.692Z,17.22
2017-07-25T13:35:58.752Z,19.88
2017-07-25T13:38:27.193Z,18.02
2017-07-25T13:40:53.976Z,17.95
2017-07-25T13:43:28.547Z,15.88
2017-07-25T13:45:56.256Z,15.25
2017-07-25T13:48:23.726Z,15.63
2017-07-25T13:50:54.298Z,16.50
2017-07-25T13:53:21.467Z,14.25
2017-07-25T13:55:55.491Z,15.17
2017-07-25T13:58:23.216Z,15.68
2017-07-25T14:00:51.106Z,16.60
2017-07-25T14:03:18.189Z,17.23
2017-07-25T14:05:45.248Z,16.63
2017-07-25T14:08:13.978Z,14.60
2017-07-25T14:10:41.064Z,13.28
2017-07-25T14:16:01.753Z,13.47
2017-07-25T14:18:29.526Z,12.67
2017-07-25T14:20:58.581Z,13.92
2017-07-25T14:23:25.625Z,13.18
2017-07-25T14:25:55.653Z,13.32
2017-07-25T14:28:23.123Z,12.07
2017-07-25T14:30:51.119Z,12.58
2017-07-25T14:33:18.151Z,12.52
2017-07-25T14:35:44.965Z,14.32
2017-07-25T14:38:12.294Z,15.02
2017-07-25T14:40:39.345Z,13.65
2017-07-25T14:48:49.509Z,15.93
2017-07-25T14:51:16.540Z,17.22
2017-07-25T14:53:43.977Z,16.37
2017-07-25T14:56:11.616Z,16.83
2017-07-25T14:58:38.636Z,17.03
2017-07-25T15:01:06.136Z,16.75
2017-07-25T15:03:33.560Z,17.40
2017-07-25T15:06:01.959Z,17.15
2017-07-25T15:08:29.363Z,18.33
2017-07-25T15:10:57.861Z,18.08
2017-07-25T15:13:25.686Z,18.95
2017-07-25T15:15:53.702Z,15.78
2017-07-25T15:18:20.500Z,15.97
2017-07-25T15:20:48.066Z,20.15
2017-07-25T15:23:17.225Z,18.85
2017-07-25T15:25:44.434Z,20.03
2017-07-25T15:28:11.231Z,21.35
2017-07-25T15:30:38.543Z,21.05
2017-07-25T15:33:09.623Z,18.28
2017-07-25T15:38:12.148Z,17.60
2017-07-25T15:40:39.534Z,18.22
2017-07-25T15:43:10.923Z,16.90
2017-07-25T15:45:49.809Z,15.32
2017-07-25T15:48:16.914Z,11.47
2017-07-25T15:50:45.915Z,11.22
2017-07-25T15:53:30.158Z,10.17
2017-07-25T15:55:58.864Z,9.88
2017-07-25T15:58:26.354Z,7.10
2017-07-25T16:00:54.575Z,7.37
2017-07-25T16:03:21.622Z,7.30
2017-07-25T16:05:49.326Z,7.32
2017-07-25T16:08:16.200Z,7.30
2017-07-25T16:10:43.003Z,7.27
2017-07-25T16:13:09.773Z,8.55
2017-07-25T16:15:38.483Z,8.28
2017-07-25T16:18:05.285Z,8.52
2017-07-25T16:20:32.282Z,8.58
2017-07-25T16:22:59.497Z,7.45
2017-07-25T16:25:27.067Z,10.23
2017-07-25T16:27:54.536Z,8.68
2017-07-25T16:30:22.744Z,8.77
2017-07-25T16:32:49.892Z,9.45
2017-07-25T16:35:16.661Z,10.98
2017-07-25T16:37:44.321Z,9.48
2017-07-25T16:40:11.363Z,11.73
2017-07-25T16:42:39.137Z,10.50
2017-07-25T16:45:12.298Z,9.52
2017-07-25T16:50:24.442Z,11.18
2017-07-25T16:53:03.732Z,10.20
2017-07-25T16:55:31.211Z,9.35
2017-07-25T16:58:05.752Z,10.82
2017-07-25T17:03:13.089Z,10.40
2017-07-25T17:05:47.579Z,10.50
2017-07-25T17:08:31.610Z,9.70
2017-07-25T17:11:03.475Z,9.43
2017-07-25T17:16:17.512Z,11.12
2017-07-25T17:18:50.668Z,11.07
2017-07-25T17:24:19.923Z,12.67
2017-07-25T17:26:47.573Z,10.85
2017-07-25T17:29:17.067Z,13.20
2017-07-25T17:31:52.260Z,13.17
2017-07-25T17:34:21.835Z,13.00
2017-07-25T17:36:55.897Z,11.80
2017-07-25T17:39:24.412Z,10.87
2017-07-25T17:41:59.581Z,9.68
2017-07-25T17:44:30.131Z,11.10
2017-07-25T17:46:57.733Z,8.90
2017-07-25T17:49:26.109Z,8.55
2017-07-25T17:52:07.511Z,7.97
2017-07-25T17:54:35.634Z,8.37
2017-07-25T17:57:11.441Z,8.53
2017-07-25T17:59:47.459Z,8.57
